sensor_id;sensor_type;location;lat;lon;timestamp;pressure;altitude;pressure_sealevel;temperature;humidity
13407;BME280;6774;48.208;10.766;2023-04-27T00:00:35;95584.06;;;8.97;77.82
13407;BME280;6774;48.208;10.766;2023-04-27T00:03:02;95581.00;;;8.86;78.03
13407;BME280;6774;48.208;10.766;2023-04-27T00:05:34;95580.31;;;8.92;78.04
13407;BME280;6774;48.208;10.766;2023-04-27T00:08:05;95570.47;;;8.86;78.20
13407;BME280;6774;48.208;10.766;2023-04-27T00:10:33;95575.91;;;8.84;77.86
13407;BME280;6774;48.208;10.766;2023-04-27T00:13:01;95560.28;;;8.82;78.12
13407;BME280;6774;48.208;10.766;2023-04-27T00:15:29;95560.94;;;8.84;78.63
13407;BME280;6774;48.208;10.766;2023-04-27T00:17:56;95570.19;;;8.80;78.95
13407;BME280;6774;48.208;10.766;2023-04-27T00:20:24;95565.19;;;8.86;78.13
13407;BME280;6774;48.208;10.766;2023-04-27T00:22:53;95569.19;;;8.81;78.64
13407;BME280;6774;48.208;10.766;2023-04-27T00:25:22;95566.75;;;8.80;78.25
13407;BME280;6774;48.208;10.766;2023-04-27T00:27:49;95561.97;;;8.75;78.25
13407;BME280;6774;48.208;10.766;2023-04-27T00:30:17;95563.84;;;8.67;78.36
13407;BME280;6774;48.208;10.766;2023-04-27T00:32:45;95565.22;;;8.63;78.41
13407;BME280;6774;48.208;10.766;2023-04-27T00:35:15;95561.13;;;8.60;78.37
13407;BME280;6774;48.208;10.766;2023-04-27T00:37:43;95557.81;;;8.58;79.37
13407;BME280;6774;48.208;10.766;2023-04-27T00:40:12;95554.56;;;8.56;79.45
13407;BME280;6774;48.208;10.766;2023-04-27T00:42:40;95569.50;;;8.55;79.28
13407;BME280;6774;48.208;10.766;2023-04-27T00:45:09;95560.50;;;8.50;80.09
13407;BME280;6774;48.208;10.766;2023-04-27T00:47:37;95567.50;;;8.35;79.94
13407;BME280;6774;48.208;10.766;2023-04-27T00:50:05;95559.63;;;8.35;79.91
13407;BME280;6774;48.208;10.766;2023-04-27T00:52:35;95566.97;;;8.31;79.87
13407;BME280;6774;48.208;10.766;2023-04-27T00:55:03;95562.88;;;8.28;80.14
13407;BME280;6774;48.208;10.766;2023-04-27T00:57:33;95568.50;;;8.25;80.59
13407;BME280;6774;48.208;10.766;2023-04-27T01:00:03;95557.03;;;8.18;80.33
13407;BME280;6774;48.208;10.766;2023-04-27T01:02:33;95561.00;;;8.14;80.28
13407;BME280;6774;48.208;10.766;2023-04-27T01:05:02;95563.31;;;8.09;80.26
13407;BME280;6774;48.208;10.766;2023-04-27T01:07:30;95558.09;;;8.01;80.50
13407;BME280;6774;48.208;10.766;2023-04-27T01:09:58;95552.53;;;7.96;80.38
13407;BME280;6774;48.208;10.766;2023-04-27T01:12:26;95566.16;;;7.91;80.11
13407;BME280;6774;48.208;10.766;2023-04-27T01:14:55;95560.63;;;7.86;80.29
13407;BME280;6774;48.208;10.766;2023-04-27T01:17:23;95566.00;;;7.85;80.50
13407;BME280;6774;48.208;10.766;2023-04-27T01:19:51;95562.56;;;7.84;80.40
13407;BME280;6774;48.208;10.766;2023-04-27T01:22:21;95563.38;;;7.85;80.25
13407;BME280;6774;48.208;10.766;2023-04-27T01:24:50;95566.19;;;7.83;80.20
13407;BME280;6774;48.208;10.766;2023-04-27T01:27:17;95568.00;;;7.83;80.49
13407;BME280;6774;48.208;10.766;2023-04-27T01:29:45;95555.69;;;7.83;80.30
13407;BME280;6774;48.208;10.766;2023-04-27T01:32:13;95560.28;;;7.81;80.15
13407;BME280;6774;48.208;10.766;2023-04-27T01:34:41;95556.19;;;7.79;80.69
13407;BME280;6774;48.208;10.766;2023-04-27T01:37:09;95560.78;;;7.77;80.34
13407;BME280;6774;48.208;10.766;2023-04-27T01:39:37;95556.06;;;7.72;80.51
13407;BME280;6774;48.208;10.766;2023-04-27T01:42:08;95563.28;;;7.70;80.24
13407;BME280;6774;48.208;10.766;2023-04-27T01:44:38;95554.91;;;7.66;80.85
13407;BME280;6774;48.208;10.766;2023-04-27T01:47:07;95568.22;;;7.65;80.65
13407;BME280;6774;48.208;10.766;2023-04-27T01:49:35;95569.38;;;7.62;80.87
13407;BME280;6774;48.208;10.766;2023-04-27T01:52:03;95570.38;;;7.61;80.76
13407;BME280;6774;48.208;10.766;2023-04-27T01:54:32;95568.88;;;7.59;80.17
13407;BME280;6774;48.208;10.766;2023-04-27T01:57:00;95570.69;;;7.58;80.49
13407;BME280;6774;48.208;10.766;2023-04-27T01:59:29;95570.19;;;7.55;80.62
13407;BME280;6774;48.208;10.766;2023-04-27T02:01:57;95575.28;;;7.48;80.76
13407;BME280;6774;48.208;10.766;2023-04-27T02:04:25;95573.03;;;7.37;80.96
13407;BME280;6774;48.208;10.766;2023-04-27T02:06:53;95566.47;;;7.33;81.17
13407;BME280;6774;48.208;10.766;2023-04-27T02:09:20;95566.47;;;7.33;80.95
13407;BME280;6774;48.208;10.766;2023-04-27T02:11:48;95563.03;;;7.24;80.91
13407;BME280;6774;48.208;10.766;2023-04-27T02:14:16;95564.50;;;7.19;81.45
13407;BME280;6774;48.208;10.766;2023-04-27T02:16:47;95567.47;;;7.07;81.35
13407;BME280;6774;48.208;10.766;2023-04-27T02:19:14;95573.88;;;7.05;81.67
13407;BME280;6774;48.208;10.766;2023-04-27T02:21:42;95575.16;;;7.01;81.85
13407;BME280;6774;48.208;10.766;2023-04-27T02:24:10;95580.91;;;6.96;82.19
13407;BME280;6774;48.208;10.766;2023-04-27T02:26:38;95579.09;;;6.89;82.59
13407;BME280;6774;48.208;10.766;2023-04-27T02:29:06;95578.13;;;6.90;82.20
13407;BME280;6774;48.208;10.766;2023-04-27T02:31:35;95580.56;;;6.91;82.51
13407;BME280;6774;48.208;10.766;2023-04-27T02:34:04;95578.94;;;6.90;82.58
13407;BME280;6774;48.208;10.766;2023-04-27T02:36:32;95579.59;;;6.92;82.56
13407;BME280;6774;48.208;10.766;2023-04-27T02:39:00;95579.41;;;6.94;82.74
13407;BME280;6774;48.208;10.766;2023-04-27T02:41:30;95585.50;;;6.94;82.94
13407;BME280;6774;48.208;10.766;2023-04-27T02:43:58;95588.13;;;6.86;82.78
13407;BME280;6774;48.208;10.766;2023-04-27T02:46:25;95576.00;;;6.77;82.60
13407;BME280;6774;48.208;10.766;2023-04-27T02:48:54;95576.63;;;6.71;82.38
13407;BME280;6774;48.208;10.766;2023-04-27T02:51:23;95579.72;;;6.66;82.37
13407;BME280;6774;48.208;10.766;2023-04-27T02:53:51;95593.66;;;6.59;82.46
13407;BME280;6774;48.208;10.766;2023-04-27T02:56:19;95589.53;;;6.56;82.74
13407;BME280;6774;48.208;10.766;2023-04-27T02:58:47;95590.69;;;6.53;83.05
13407;BME280;6774;48.208;10.766;2023-04-27T03:01:15;95589.69;;;6.46;83.00
13407;BME280;6774;48.208;10.766;2023-04-27T03:03:44;95595.06;;;6.37;82.99
13407;BME280;6774;48.208;10.766;2023-04-27T03:06:13;95590.59;;;6.29;82.81
13407;BME280;6774;48.208;10.766;2023-04-27T03:08:43;95595.53;;;6.24;82.45
13407;BME280;6774;48.208;10.766;2023-04-27T03:11:11;95593.19;;;6.13;82.83
13407;BME280;6774;48.208;10.766;2023-04-27T03:13:39;95591.84;;;6.09;83.54
13407;BME280;6774;48.208;10.766;2023-04-27T03:16:08;95589.88;;;6.11;83.65
13407;BME280;6774;48.208;10.766;2023-04-27T03:18:38;95591.53;;;6.12;83.89
13407;BME280;6774;48.208;10.766;2023-04-27T03:21:06;95595.66;;;6.14;83.56
13407;BME280;6774;48.208;10.766;2023-04-27T03:23:35;95594.50;;;6.17;83.76
13407;BME280;6774;48.208;10.766;2023-04-27T03:26:08;95587.31;;;6.19;84.12
13407;BME280;6774;48.208;10.766;2023-04-27T03:28:36;95591.56;;;6.20;84.08
13407;BME280;6774;48.208;10.766;2023-04-27T03:31:04;95586.84;;;6.23;84.13
13407;BME280;6774;48.208;10.766;2023-04-27T03:33:33;95597.97;;;6.25;83.95
13407;BME280;6774;48.208;10.766;2023-04-27T03:36:02;95589.47;;;6.23;83.87
13407;BME280;6774;48.208;10.766;2023-04-27T03:38:33;95593.34;;;6.11;84.08
13407;BME280;6774;48.208;10.766;2023-04-27T03:41:02;95601.63;;;5.98;84.02
13407;BME280;6774;48.208;10.766;2023-04-27T03:43:31;95609.38;;;5.56;84.23
13407;BME280;6774;48.208;10.766;2023-04-27T03:45:58;95613.25;;;5.70;83.88
13407;BME280;6774;48.208;10.766;2023-04-27T03:48:27;95620.72;;;5.65;83.73
13407;BME280;6774;48.208;10.766;2023-04-27T03:50:54;95614.34;;;5.59;84.07
13407;BME280;6774;48.208;10.766;2023-04-27T03:53:22;95613.81;;;5.56;84.33
13407;BME280;6774;48.208;10.766;2023-04-27T03:55:50;95616.41;;;5.56;84.48
13407;BME280;6774;48.208;10.766;2023-04-27T03:58:18;95607.91;;;5.54;84.54
13407;BME280;6774;48.208;10.766;2023-04-27T04:01:06;95629.66;;;5.54;84.95
13407;BME280;6774;48.208;10.766;2023-04-27T04:03:35;95622.47;;;5.56;84.85
13407;BME280;6774;48.208;10.766;2023-04-27T04:06:06;95635.72;;;5.55;84.94
13407;BME280;6774;48.208;10.766;2023-04-27T04:08:34;95638.66;;;5.52;84.89
13407;BME280;6774;48.208;10.766;2023-04-27T04:11:02;95640.94;;;5.55;84.82
13407;BME280;6774;48.208;10.766;2023-04-27T04:13:29;95644.72;;;5.52;85.16
13407;BME280;6774;48.208;10.766;2023-04-27T04:16:01;95644.31;;;5.47;85.17
13407;BME280;6774;48.208;10.766;2023-04-27T04:18:31;95645.53;;;5.53;85.14
13407;BME280;6774;48.208;10.766;2023-04-27T04:20:59;95644.94;;;5.59;85.06
13407;BME280;6774;48.208;10.766;2023-04-27T04:23:27;95644.44;;;5.63;85.23
13407;BME280;6774;48.208;10.766;2023-04-27T04:25:56;95644.00;;;5.68;85.30
13407;BME280;6774;48.208;10.766;2023-04-27T04:28:28;95644.66;;;5.70;85.17
13407;BME280;6774;48.208;10.766;2023-04-27T04:30:56;95648.44;;;5.76;85.26
13407;BME280;6774;48.208;10.766;2023-04-27T04:33:24;95655.53;;;5.83;85.32
13407;BME280;6774;48.208;10.766;2023-04-27T04:35:53;95647.22;;;5.88;85.33
13407;BME280;6774;48.208;10.766;2023-04-27T04:38:21;95645.50;;;5.96;85.00
13407;BME280;6774;48.208;10.766;2023-04-27T04:40:50;95651.84;;;5.94;84.76
13407;BME280;6774;48.208;10.766;2023-04-27T04:43:18;95645.34;;;5.98;84.72
13407;BME280;6774;48.208;10.766;2023-04-27T04:45:46;95651.44;;;6.07;84.73
13407;BME280;6774;48.208;10.766;2023-04-27T04:48:14;95653.28;;;6.14;85.08
13407;BME280;6774;48.208;10.766;2023-04-27T04:50:44;95656.13;;;6.29;84.64
13407;BME280;6774;48.208;10.766;2023-04-27T04:53:13;95657.81;;;6.38;84.88
13407;BME280;6774;48.208;10.766;2023-04-27T04:55:41;95667.34;;;6.47;84.76
13407;BME280;6774;48.208;10.766;2023-04-27T04:58:09;95655.56;;;6.51;84.46
13407;BME280;6774;48.208;10.766;2023-04-27T05:00:36;95666.38;;;6.56;84.16
13407;BME280;6774;48.208;10.766;2023-04-27T05:03:04;95661.50;;;6.62;84.21
13407;BME280;6774;48.208;10.766;2023-04-27T05:05:33;95664.16;;;6.70;84.15
13407;BME280;6774;48.208;10.766;2023-04-27T05:08:01;95667.09;;;6.75;84.31
13407;BME280;6774;48.208;10.766;2023-04-27T05:10:30;95654.66;;;6.85;84.12
13407;BME280;6774;48.208;10.766;2023-04-27T05:12:58;95659.28;;;6.91;84.00
13407;BME280;6774;48.208;10.766;2023-04-27T05:15:25;95665.53;;;6.98;83.73
13407;BME280;6774;48.208;10.766;2023-04-27T05:17:53;95653.41;;;7.05;83.36
13407;BME280;6774;48.208;10.766;2023-04-27T05:20:21;95668.81;;;7.08;83.80
13407;BME280;6774;48.208;10.766;2023-04-27T05:22:48;95663.59;;;7.17;83.68
13407;BME280;6774;48.208;10.766;2023-04-27T05:25:16;95672.13;;;7.27;83.72
13407;BME280;6774;48.208;10.766;2023-04-27T05:27:45;95661.63;;;7.27;82.46
13407;BME280;6774;48.208;10.766;2023-04-27T05:30:13;95667.19;;;7.40;82.47
13407;BME280;6774;48.208;10.766;2023-04-27T05:32:41;95666.53;;;7.46;82.64
13407;BME280;6774;48.208;10.766;2023-04-27T05:35:08;95665.56;;;7.55;82.90
13407;BME280;6774;48.208;10.766;2023-04-27T05:37:36;95660.94;;;7.65;82.46
13407;BME280;6774;48.208;10.766;2023-04-27T05:40:05;95660.94;;;7.74;82.60
13407;BME280;6774;48.208;10.766;2023-04-27T05:42:34;95663.06;;;7.86;82.48
13407;BME280;6774;48.208;10.766;2023-04-27T05:45:05;95671.72;;;7.95;81.72
13407;BME280;6774;48.208;10.766;2023-04-27T05:47:33;95665.00;;;8.01;81.63
13407;BME280;6774;48.208;10.766;2023-04-27T05:50:00;95673.34;;;8.12;81.59
13407;BME280;6774;48.208;10.766;2023-04-27T05:52:29;95672.69;;;8.10;80.49
13407;BME280;6774;48.208;10.766;2023-04-27T05:54:57;95670.69;;;8.20;80.58
13407;BME280;6774;48.208;10.766;2023-04-27T05:57:25;95678.56;;;8.28;80.26
13407;BME280;6774;48.208;10.766;2023-04-27T05:59:53;95677.94;;;8.35;80.27
13407;BME280;6774;48.208;10.766;2023-04-27T06:02:22;95676.56;;;8.47;79.86
13407;BME280;6774;48.208;10.766;2023-04-27T06:04:50;95678.81;;;8.58;79.94
13407;BME280;6774;48.208;10.766;2023-04-27T06:07:18;95674.47;;;8.73;79.92
13407;BME280;6774;48.208;10.766;2023-04-27T06:09:45;95677.72;;;8.83;79.11
13407;BME280;6774;48.208;10.766;2023-04-27T06:12:13;95674.69;;;8.95;79.38
13407;BME280;6774;48.208;10.766;2023-04-27T06:14:41;95674.19;;;8.99;78.54
13407;BME280;6774;48.208;10.766;2023-04-27T06:17:09;95679.34;;;9.16;77.66
13407;BME280;6774;48.208;10.766;2023-04-27T06:19:38;95682.09;;;9.22;77.81
13407;BME280;6774;48.208;10.766;2023-04-27T06:22:06;95678.88;;;9.35;78.29
13407;BME280;6774;48.208;10.766;2023-04-27T06:24:33;95677.66;;;9.46;77.28
13407;BME280;6774;48.208;10.766;2023-04-27T06:27:02;95679.50;;;9.60;77.32
13407;BME280;6774;48.208;10.766;2023-04-27T06:29:30;95687.09;;;9.78;77.63
13407;BME280;6774;48.208;10.766;2023-04-27T06:31:57;95690.41;;;9.94;78.27
13407;BME280;6774;48.208;10.766;2023-04-27T06:34:25;95681.53;;;10.10;76.77
13407;BME280;6774;48.208;10.766;2023-04-27T06:36:55;95687.84;;;10.24;76.69
13407;BME280;6774;48.208;10.766;2023-04-27T06:39:22;95691.69;;;10.36;76.03
13407;BME280;6774;48.208;10.766;2023-04-27T06:41:50;95681.66;;;10.46;75.12
13407;BME280;6774;48.208;10.766;2023-04-27T06:44:17;95680.84;;;10.61;75.58
13407;BME280;6774;48.208;10.766;2023-04-27T06:46:45;95686.47;;;10.72;75.12
13407;BME280;6774;48.208;10.766;2023-04-27T06:49:13;95695.75;;;10.83;74.02
13407;BME280;6774;48.208;10.766;2023-04-27T06:51:41;95690.38;;;10.91;72.70
13407;BME280;6774;48.208;10.766;2023-04-27T06:54:10;95683.97;;;11.00;73.19
13407;BME280;6774;48.208;10.766;2023-04-27T06:56:38;95687.94;;;11.11;73.57
13407;BME280;6774;48.208;10.766;2023-04-27T06:59:06;95689.09;;;11.23;73.17
13407;BME280;6774;48.208;10.766;2023-04-27T07:01:34;95691.69;;;11.38;73.37
13407;BME280;6774;48.208;10.766;2023-04-27T07:04:02;95697.34;;;11.56;71.53
13407;BME280;6774;48.208;10.766;2023-04-27T07:06:30;95707.34;;;11.61;70.79
13407;BME280;6774;48.208;10.766;2023-04-27T07:08:59;95707.81;;;11.64;71.21
13407;BME280;6774;48.208;10.766;2023-04-27T07:11:28;95703.84;;;11.75;70.04
13407;BME280;6774;48.208;10.766;2023-04-27T07:13:55;95696.53;;;11.77;70.02
13407;BME280;6774;48.208;10.766;2023-04-27T07:16:23;95696.22;;;11.87;70.66
13407;BME280;6774;48.208;10.766;2023-04-27T07:18:51;95705.66;;;11.96;70.74
13407;BME280;6774;48.208;10.766;2023-04-27T07:21:19;95697.09;;;11.94;71.59
13407;BME280;6774;48.208;10.766;2023-04-27T07:23:47;95701.19;;;11.96;70.66
13407;BME280;6774;48.208;10.766;2023-04-27T07:26:15;95697.25;;;12.14;71.64
13407;BME280;6774;48.208;10.766;2023-04-27T07:28:44;95699.41;;;12.32;71.21
13407;BME280;6774;48.208;10.766;2023-04-27T07:31:12;95695.34;;;12.29;71.17
13407;BME280;6774;48.208;10.766;2023-04-27T07:33:40;95696.00;;;12.38;69.93
13407;BME280;6774;48.208;10.766;2023-04-27T07:36:09;95694.06;;;12.53;70.19
13407;BME280;6774;48.208;10.766;2023-04-27T07:38:36;95701.69;;;12.69;70.34
13407;BME280;6774;48.208;10.766;2023-04-27T07:41:04;95700.88;;;12.69;70.26
13407;BME280;6774;48.208;10.766;2023-04-27T07:43:32;95702.13;;;12.79;69.82
13407;BME280;6774;48.208;10.766;2023-04-27T07:46:01;95692.84;;;12.97;69.04
13407;BME280;6774;48.208;10.766;2023-04-27T07:48:30;95690.94;;;13.25;67.83
13407;BME280;6774;48.208;10.766;2023-04-27T07:50:58;95683.88;;;13.59;67.91
13407;BME280;6774;48.208;10.766;2023-04-27T07:53:25;95692.66;;;13.79;66.67
13407;BME280;6774;48.208;10.766;2023-04-27T07:55:53;95691.06;;;13.85;65.73
13407;BME280;6774;48.208;10.766;2023-04-27T07:58:21;95703.72;;;14.29;64.73
13407;BME280;6774;48.208;10.766;2023-04-27T08:00:48;95700.25;;;14.48;63.21
13407;BME280;6774;48.208;10.766;2023-04-27T08:03:17;95697.16;;;14.25;62.69
13407;BME280;6774;48.208;10.766;2023-04-27T08:05:45;95704.91;;;14.33;62.35
13407;BME280;6774;48.208;10.766;2023-04-27T08:08:14;95699.59;;;14.73;61.88
13407;BME280;6774;48.208;10.766;2023-04-27T08:10:42;95703.59;;;14.89;61.71
13407;BME280;6774;48.208;10.766;2023-04-27T08:13:10;95698.28;;;14.95;60.08
13407;BME280;6774;48.208;10.766;2023-04-27T08:15:38;95704.47;;;14.83;61.75
13407;BME280;6774;48.208;10.766;2023-04-27T08:18:06;95704.31;;;15.16;60.89
13407;BME280;6774;48.208;10.766;2023-04-27T08:20:35;95706.03;;;14.97;60.31
13407;BME280;6774;48.208;10.766;2023-04-27T08:23:02;95700.78;;;14.84;59.93
13407;BME280;6774;48.208;10.766;2023-04-27T08:25:31;95703.88;;;14.61;61.82
13407;BME280;6774;48.208;10.766;2023-04-27T08:27:59;95714.72;;;14.39;61.67
13407;BME280;6774;48.208;10.766;2023-04-27T08:30:26;95710.53;;;14.96;61.00
13407;BME280;6774;48.208;10.766;2023-04-27T08:32:54;95710.22;;;14.73;60.58
13407;BME280;6774;48.208;10.766;2023-04-27T08:35:22;95697.41;;;15.08;59.85
13407;BME280;6774;48.208;10.766;2023-04-27T08:37:51;95698.91;;;15.35;60.48
13407;BME280;6774;48.208;10.766;2023-04-27T08:40:20;95700.16;;;15.33;59.31
13407;BME280;6774;48.208;10.766;2023-04-27T08:42:54;95695.16;;;16.13;57.82
13407;BME280;6774;48.208;10.766;2023-04-27T08:45:22;95685.16;;;16.33;56.00
13407;BME280;6774;48.208;10.766;2023-04-27T08:47:50;95688.28;;;16.92;57.05
13407;BME280;6774;48.208;10.766;2023-04-27T08:50:19;95690.22;;;16.85;54.51
13407;BME280;6774;48.208;10.766;2023-04-27T08:52:47;95685.41;;;16.50;54.41
13407;BME280;6774;48.208;10.766;2023-04-27T08:55:16;95686.38;;;16.37;54.57
13407;BME280;6774;48.208;10.766;2023-04-27T08:57:53;95687.09;;;16.88;51.32
13407;BME280;6774;48.208;10.766;2023-04-27T09:00:23;95687.06;;;17.24;51.61
13407;BME280;6774;48.208;10.766;2023-04-27T09:02:51;95688.06;;;17.42;50.74
13407;BME280;6774;48.208;10.766;2023-04-27T09:05:21;95691.59;;;17.54;51.30
13407;BME280;6774;48.208;10.766;2023-04-27T09:07:57;95688.72;;;17.85;51.99
13407;BME280;6774;48.208;10.766;2023-04-27T09:10:26;95685.50;;;18.07;50.59
13407;BME280;6774;48.208;10.766;2023-04-27T09:12:56;95680.06;;;18.25;50.08
13407;BME280;6774;48.208;10.766;2023-04-27T09:15:24;95690.19;;;18.46;49.67
13407;BME280;6774;48.208;10.766;2023-04-27T09:17:53;95680.31;;;18.59;50.33
13407;BME280;6774;48.208;10.766;2023-04-27T09:20:22;95677.75;;;18.87;49.19
13407;BME280;6774;48.208;10.766;2023-04-27T09:22:53;95672.69;;;19.14;48.38
13407;BME280;6774;48.208;10.766;2023-04-27T09:25:27;95678.34;;;19.70;47.68
13407;BME280;6774;48.208;10.766;2023-04-27T09:27:55;95664.63;;;19.54;48.28
13407;BME280;6774;48.208;10.766;2023-04-27T09:30:24;95666.34;;;19.89;48.37
13407;BME280;6774;48.208;10.766;2023-04-27T09:32:53;95663.19;;;19.92;46.64
13407;BME280;6774;48.208;10.766;2023-04-27T09:35:24;95660.53;;;20.26;46.60
13407;BME280;6774;48.208;10.766;2023-04-27T09:37:53;95669.81;;;20.52;45.54
13407;BME280;6774;48.208;10.766;2023-04-27T09:40:22;95674.81;;;20.14;45.15
13407;BME280;6774;48.208;10.766;2023-04-27T09:42:54;95658.56;;;20.38;46.02
13407;BME280;6774;48.208;10.766;2023-04-27T09:45:23;95660.81;;;20.80;45.49
13407;BME280;6774;48.208;10.766;2023-04-27T09:47:51;95648.88;;;20.92;43.91
13407;BME280;6774;48.208;10.766;2023-04-27T09:50:19;95652.50;;;20.81;43.02
13407;BME280;6774;48.208;10.766;2023-04-27T09:52:47;95658.69;;;20.82;43.68
13407;BME280;6774;48.208;10.766;2023-04-27T09:55:17;95654.28;;;20.76;42.67
13407;BME280;6774;48.208;10.766;2023-04-27T09:57:52;95652.22;;;20.78;43.62
13407;BME280;6774;48.208;10.766;2023-04-27T10:00:41;95644.59;;;20.69;42.11
13407;BME280;6774;48.208;10.766;2023-04-27T10:03:19;95647.47;;;20.12;45.93
13407;BME280;6774;48.208;10.766;2023-04-27T10:06:19;95648.31;;;19.68;46.84
13407;BME280;6774;48.208;10.766;2023-04-27T10:08:58;95644.41;;;19.30;48.46
13407;BME280;6774;48.208;10.766;2023-04-27T10:11:37;95651.63;;;18.42;48.03
13407;BME280;6774;48.208;10.766;2023-04-27T10:14:07;95642.09;;;18.23;51.81
13407;BME280;6774;48.208;10.766;2023-04-27T10:16:44;95650.22;;;18.28;49.32
13407;BME280;6774;48.208;10.766;2023-04-27T10:19:12;95639.84;;;18.90;46.54
13407;BME280;6774;48.208;10.766;2023-04-27T10:21:55;95643.19;;;19.38;44.77
13407;BME280;6774;48.208;10.766;2023-04-27T10:24:32;95636.16;;;19.77;46.07
13407;BME280;6774;48.208;10.766;2023-04-27T10:27:02;95643.63;;;20.08;45.39
13407;BME280;6774;48.208;10.766;2023-04-27T10:29:36;95631.97;;;19.24;46.55
13407;BME280;6774;48.208;10.766;2023-04-27T10:32:11;95640.91;;;20.03;47.39
13407;BME280;6774;48.208;10.766;2023-04-27T10:34:39;95640.69;;;19.59;46.28
13407;BME280;6774;48.208;10.766;2023-04-27T10:37:10;95641.69;;;19.87;43.92
13407;BME280;6774;48.208;10.766;2023-04-27T10:39:40;95639.63;;;19.60;44.75
13407;BME280;6774;48.208;10.766;2023-04-27T10:42:24;95645.47;;;19.57;45.47
13407;BME280;6774;48.208;10.766;2023-04-27T10:44:53;95641.41;;;19.43;46.29
13407;BME280;6774;48.208;10.766;2023-04-27T10:47:35;95636.16;;;19.77;47.17
13407;BME280;6774;48.208;10.766;2023-04-27T10:50:04;95640.25;;;20.13;44.78
13407;BME280;6774;48.208;10.766;2023-04-27T10:52:32;95639.41;;;19.79;44.92
13407;BME280;6774;48.208;10.766;2023-04-27T10:55:11;95629.00;;;21.10;44.66
13407;BME280;6774;48.208;10.766;2023-04-27T10:57:45;95625.69;;;20.81;44.05
13407;BME280;6774;48.208;10.766;2023-04-27T11:00:14;95628.78;;;20.73;42.93
13407;BME280;6774;48.208;10.766;2023-04-27T11:02:44;95625.16;;;20.62;44.17
13407;BME280;6774;48.208;10.766;2023-04-27T11:05:16;95631.97;;;20.92;45.64
13407;BME280;6774;48.208;10.766;2023-04-27T11:07:44;95629.25;;;20.87;44.27
13407;BME280;6774;48.208;10.766;2023-04-27T11:10:17;95630.13;;;20.92;45.10
13407;BME280;6774;48.208;10.766;2023-04-27T11:12:45;95628.41;;;21.03;45.45
13407;BME280;6774;48.208;10.766;2023-04-27T11:15:13;95636.03;;;20.72;43.21
13407;BME280;6774;48.208;10.766;2023-04-27T11:17:41;95638.91;;;19.82;45.02
13407;BME280;6774;48.208;10.766;2023-04-27T11:20:11;95630.56;;;19.50;44.93
13407;BME280;6774;48.208;10.766;2023-04-27T11:22:43;95640.59;;;19.43;44.99
13407;BME280;6774;48.208;10.766;2023-04-27T11:25:12;95640.56;;;18.74;48.58
13407;BME280;6774;48.208;10.766;2023-04-27T11:27:40;95644.91;;;18.75;46.86
13407;BME280;6774;48.208;10.766;2023-04-27T11:30:18;95640.91;;;18.89;51.40
13407;BME280;6774;48.208;10.766;2023-04-27T11:32:46;95632.53;;;18.74;46.95
13407;BME280;6774;48.208;10.766;2023-04-27T11:35:16;95633.69;;;19.30;44.86
13407;BME280;6774;48.208;10.766;2023-04-27T11:37:56;95616.81;;;19.75;45.58
13407;BME280;6774;48.208;10.766;2023-04-27T11:40:24;95633.97;;;18.65;45.72
13407;BME280;6774;48.208;10.766;2023-04-27T11:42:57;95632.81;;;19.41;46.95
13407;BME280;6774;48.208;10.766;2023-04-27T11:45:29;95633.41;;;20.05;45.06
13407;BME280;6774;48.208;10.766;2023-04-27T11:47:57;95649.19;;;18.41;47.26
13407;BME280;6774;48.208;10.766;2023-04-27T11:50:26;95643.69;;;18.83;48.57
13407;BME280;6774;48.208;10.766;2023-04-27T11:52:54;95632.44;;;18.10;47.25
13407;BME280;6774;48.208;10.766;2023-04-27T11:55:26;95638.38;;;18.71;46.05
13407;BME280;6774;48.208;10.766;2023-04-27T11:57:56;95629.41;;;19.46;45.67
13407;BME280;6774;48.208;10.766;2023-04-27T12:00:24;95631.94;;;20.14;44.92
13407;BME280;6774;48.208;10.766;2023-04-27T12:02:52;95626.59;;;20.31;49.04
13407;BME280;6774;48.208;10.766;2023-04-27T12:05:20;95630.97;;;19.87;47.99
13407;BME280;6774;48.208;10.766;2023-04-27T12:07:51;95629.19;;;20.43;45.91
13407;BME280;6774;48.208;10.766;2023-04-27T12:10:18;95628.00;;;20.39;44.90
13407;BME280;6774;48.208;10.766;2023-04-27T12:12:46;95633.56;;;19.53;47.45
13407;BME280;6774;48.208;10.766;2023-04-27T12:15:14;95633.44;;;19.31;46.61
13407;BME280;6774;48.208;10.766;2023-04-27T12:17:42;95634.16;;;19.27;49.40
13407;BME280;6774;48.208;10.766;2023-04-27T12:20:11;95629.47;;;19.06;49.11
13407;BME280;6774;48.208;10.766;2023-04-27T12:22:40;95629.66;;;19.16;47.40
13407;BME280;6774;48.208;10.766;2023-04-27T12:25:09;95625.75;;;19.35;48.61
13407;BME280;6774;48.208;10.766;2023-04-27T12:27:36;95628.84;;;19.72;46.00
13407;BME280;6774;48.208;10.766;2023-04-27T12:30:07;95634.06;;;19.22;48.68
13407;BME280;6774;48.208;10.766;2023-04-27T12:32:34;95624.28;;;19.73;47.26
13407;BME280;6774;48.208;10.766;2023-04-27T12:35:02;95624.56;;;19.88;45.44
13407;BME280;6774;48.208;10.766;2023-04-27T12:37:31;95618.28;;;19.09;47.94
13407;BME280;6774;48.208;10.766;2023-04-27T12:39:59;95619.03;;;18.92;50.35
13407;BME280;6774;48.208;10.766;2023-04-27T12:42:28;95629.19;;;18.08;50.79
13407;BME280;6774;48.208;10.766;2023-04-27T12:44:56;95634.91;;;18.24;51.01
13407;BME280;6774;48.208;10.766;2023-04-27T12:47:23;95631.38;;;18.46;53.79
13407;BME280;6774;48.208;10.766;2023-04-27T12:50:11;95624.63;;;19.19;49.92
13407;BME280;6774;48.208;10.766;2023-04-27T12:52:41;95626.41;;;19.14;49.40
13407;BME280;6774;48.208;10.766;2023-04-27T12:55:08;95626.72;;;19.57;49.85
13407;BME280;6774;48.208;10.766;2023-04-27T12:57:57;95624.56;;;19.88;47.06
13407;BME280;6774;48.208;10.766;2023-04-27T13:00:25;95620.75;;;19.67;49.42
13407;BME280;6774;48.208;10.766;2023-04-27T13:02:53;95629.31;;;18.48;49.03
13407;BME280;6774;48.208;10.766;2023-04-27T13:05:22;95618.03;;;19.10;51.04
13407;BME280;6774;48.208;10.766;2023-04-27T13:07:50;95616.84;;;19.18;47.37
13407;BME280;6774;48.208;10.766;2023-04-27T13:10:17;95617.97;;;19.05;48.74
13407;BME280;6774;48.208;10.766;2023-04-27T13:12:45;95626.69;;;19.00;50.36
13407;BME280;6774;48.208;10.766;2023-04-27T13:15:14;95622.50;;;19.04;49.22